Time;durP1;ratioP1;P1;durP2;ratioP2;P2;SDS_P1;SDS_P2;PMS_P1;PMS_P2;Temp;Humidity;BMP_temperature;BMP_pressure;BME280_temperature;BME280_humidity;BME280_pressure;Samples;Min_cycle;Max_cycle;Signal;HPM_P1;HPM_P2
2022/05/09 00:01:38;;;;;;;;;;;;;;;17.22;50.03;102932.53;6132418;23;19947;-78
2022/05/09 00:04:03;;;;;;;;;;;;;;;17.26;49.94;102929.16;6132602;23;19913;-78
2022/05/09 00:06:28;;;;;;;;;;;;;;;17.24;50.36;102936.06;6132474;23;19908;-78
2022/05/09 00:08:54;;;;;;;;;;;;;;;17.27;50.47;102930.94;6158337;23;19912;-79
2022/05/09 00:11:19;;;;;;;;;;;;;;;17.31;49.98;102927.59;6107980;23;19988;-79
2022/05/09 00:13:44;;;;;;;;;;;;;;;17.36;49.84;102936.38;6132266;23;20248;-78
2022/05/09 00:16:09;;;;;;;;;;;;;;;17.35;50.15;102929.38;6158378;23;19904;-78
2022/05/09 00:18:35;;;;;;;;;;;;;;;17.37;50.24;102927.69;6132390;23;20336;-77
2022/05/09 00:21:00;;;;;;;;;;;;;;;17.37;49.96;102921.63;6131921;23;19908;-78
2022/05/09 00:23:26;;;;;;;;;;;;;;;17.38;50.51;102923.41;6132141;23;19912;-79
2022/05/09 00:25:51;;;;;;;;;;;;;;;17.42;49.85;102927.81;6158436;23;19991;-78
2022/05/09 00:28:16;;;;;;;;;;;;;;;17.43;50.31;102913.97;6132110;23;19955;-79
2022/05/09 00:30:41;;;;;;;;;;;;;;;17.38;50.12;102916.47;6158222;23;20321;-78
2022/05/09 00:33:07;;;;;;;;;;;;;;;17.39;50.23;102922.53;6132284;23;19987;-78
2022/05/09 00:35:32;;;;;;;;;;;;;;;17.44;50.73;102920.94;6158237;23;19913;-78
2022/05/09 00:37:57;;;;;;;;;;;;;;;17.48;50.19;102917.56;6131787;23;20245;-78
2022/05/09 00:40:23;;;;;;;;;;;;;;;17.46;49.95;102920.16;6132322;23;19913;-78
2022/05/09 00:42:52;;;;;;;;;;;;;;;17.40;50.31;102909.59;6158258;23;19974;-77
2022/05/09 00:45:19;;;;;;;;;;;;;;;17.43;50.56;102914.84;6157932;23;20058;-78
2022/05/09 00:47:45;;;;;;;;;;;;;;;17.39;50.16;102907.81;6157933;23;20317;-78
2022/05/09 00:50:12;;;;;;;;;;;;;;;17.39;50.42;102907.81;6131958;23;19912;-78
2022/05/09 00:52:37;;;;;;;;;;;;;;;17.42;50.21;102907.91;6159546;23;20401;-80
2022/05/09 00:55:15;;;;;;;;;;;;;;;17.41;50.14;102915.66;6135701;23;20322;-78
2022/05/09 00:57:44;;;;;;;;;;;;;;;17.43;50.35;102907.03;6156558;23;20280;-78
2022/05/09 01:00:14;;;;;;;;;;;;;;;17.43;50.51;102906.16;6131946;23;20283;-78
2022/05/09 01:02:41;;;;;;;;;;;;;;;17.43;50.11;102906.16;6157787;23;19912;-78
2022/05/09 01:05:07;;;;;;;;;;;;;;;17.45;50.54;102904.47;6157837;23;19913;-78
2022/05/09 01:07:32;;;;;;;;;;;;;;;17.42;49.83;102894.88;6131966;23;19916;-78
2022/05/09 01:09:58;;;;;;;;;;;;;;;17.38;50.00;102894.78;6131677;23;20289;-78
2022/05/09 01:12:32;;;;;;;;;;;;;;;17.35;49.98;102894.69;6107054;23;20321;-78
2022/05/09 01:15:03;;;;;;;;;;;;;;;17.37;50.15;102890.41;6157931;23;19909;-78
2022/05/09 01:17:29;;;;;;;;;;;;;;;17.37;50.18;102891.28;6157702;23;19916;-78
2022/05/09 01:19:55;;;;;;;;;;;;;;;17.41;50.02;102887.03;6157746;23;19908;-78
2022/05/09 01:22:23;;;;;;;;;;;;;;;17.44;50.16;102888.00;6158056;23;20318;-78
2022/05/09 01:24:48;;;;;;;;;;;;;;;17.49;50.06;102885.50;6157575;23;20353;-78
2022/05/09 01:27:13;;;;;;;;;;;;;;;17.52;50.01;102884.69;6107289;23;19913;-78
2022/05/09 01:29:48;;;;;;;;;;;;;;;17.54;50.40;102872.59;6158074;23;19975;-77
2022/05/09 01:32:16;;;;;;;;;;;;;;;17.52;50.41;102877.75;6157540;23;19912;-78
2022/05/09 01:34:45;;;;;;;;;;;;;;;17.48;49.89;102871.59;6131720;23;19908;-79
2022/05/09 01:37:11;;;;;;;;;;;;;;;17.45;50.18;102879.31;6131602;23;19923;-78
2022/05/09 01:39:36;;;;;;;;;;;;;;;17.45;50.25;102868.91;6131417;23;20277;-78
2022/05/09 01:42:06;;;;;;;;;;;;;;;17.45;50.06;102873.25;6157450;23;19917;-79
2022/05/09 01:44:31;;;;;;;;;;;;;;;17.44;49.87;102871.47;6131439;23;19913;-78
2022/05/09 01:49:40;;;;;;;;;;;;;;;17.41;49.94;102871.41;6158094;23;20257;-78
2022/05/09 01:52:07;;;;;;;;;;;;;;;17.42;49.77;102873.16;6157308;23;19912;-78
2022/05/09 01:54:33;;;;;;;;;;;;;;;17.42;49.95;102867.94;6135630;23;20449;-78
2022/05/09 01:56:58;;;;;;;;;;;;;;;17.42;50.20;102867.94;6158123;23;19932;-79
2022/05/09 01:59:23;;;;;;;;;;;;;;;17.43;49.65;102865.41;6131219;23;20325;-79
2022/05/09 02:01:51;;;;;;;;;;;;;;;17.46;50.07;102870.69;6157492;23;19920;-79
2022/05/09 02:04:16;;;;;;;;;;;;;;;17.45;49.70;102863.72;6131551;23;20219;-78
2022/05/09 02:06:42;;;;;;;;;;;;;;;17.47;49.63;102854.22;6157270;23;20051;-79
2022/05/09 02:09:07;;;;;;;;;;;;;;;17.49;49.75;102859.47;6131128;23;19908;-79
2022/05/09 02:11:32;;;;;;;;;;;;;;;17.51;49.71;102862.06;6131351;23;19967;-78
2022/05/09 02:13:58;;;;;;;;;;;;;;;17.51;49.75;102864.69;6157606;23;19991;-79
2022/05/09 02:16:23;;;;;;;;;;;;;;;17.51;49.75;102862.97;6161889;23;19963;-79
2022/05/09 02:18:48;;;;;;;;;;;;;;;17.50;49.57;102866.41;6133312;23;19975;-78
2022/05/09 02:21:13;;;;;;;;;;;;;;;17.48;49.75;102862.91;6106808;23;19952;-78
2022/05/09 02:23:39;;;;;;;;;;;;;;;17.43;49.56;102860.19;6131647;23;19916;-78
2022/05/09 02:26:04;;;;;;;;;;;;;;;17.45;49.82;102857.63;6130821;23;19912;-78
2022/05/09 02:28:29;;;;;;;;;;;;;;;17.45;49.67;102860.22;6157166;23;19912;-78
2022/05/09 02:30:55;;;;;;;;;;;;;;;17.43;49.57;102856.72;6131390;23;19917;-78
2022/05/09 02:33:20;;;;;;;;;;;;;;;17.44;49.71;102856.75;6157246;23;19908;-78
2022/05/09 02:35:46;;;;;;;;;;;;;;;17.42;49.53;102854.94;6106743;23;19924;-78
2022/05/09 02:38:11;;;;;;;;;;;;;;;17.45;49.58;102857.63;6130949;23;20223;-79
2022/05/09 02:40:37;;;;;;;;;;;;;;;17.47;49.61;102858.53;6106717;23;19987;-78
2022/05/09 02:43:03;;;;;;;;;;;;;;;17.44;49.52;102856.75;6157139;23;19916;-78
2022/05/09 02:45:29;;;;;;;;;;;;;;;17.46;49.44;102854.16;6131121;23;19912;-78
2022/05/09 02:47:54;;;;;;;;;;;;;;;17.48;49.44;102852.47;6157258;23;19968;-78
2022/05/09 02:50:21;;;;;;;;;;;;;;;17.50;49.48;102849.94;6130964;23;19909;-78
2022/05/09 02:52:50;;;;;;;;;;;;;;;17.50;49.43;102844.72;6131081;23;20233;-78
2022/05/09 02:55:16;;;;;;;;;;;;;;;17.48;49.39;102836.88;6156724;23;19909;-78
2022/05/09 02:57:41;;;;;;;;;;;;;;;17.46;49.37;102838.56;6157122;23;20015;-79
2022/05/09 03:00:12;;;;;;;;;;;;;;;17.45;49.35;102836.81;6157369;23;19913;-78
2022/05/09 03:02:37;;;;;;;;;;;;;;;17.46;49.46;102836.84;6130781;23;20000;-79
2022/05/09 03:05:03;;;;;;;;;;;;;;;17.45;49.15;102837.69;6131632;23;19914;-78
2022/05/09 03:07:28;;;;;;;;;;;;;;;17.46;49.09;102833.34;6130550;23;19924;-78
2022/05/09 03:09:54;;;;;;;;;;;;;;;17.48;49.59;102839.47;6157153;23;19913;-78
2022/05/09 03:12:19;;;;;;;;;;;;;;;17.46;49.19;102834.25;6131145;23;19913;-78
2022/05/09 03:14:46;;;;;;;;;;;;;;;17.47;49.31;102829.91;6131230;23;19913;-79
2022/05/09 03:17:11;;;;;;;;;;;;;;;17.48;49.39;102823.84;6157030;23;19932;-78
2022/05/09 03:19:37;;;;;;;;;;;;;;;17.46;49.05;102828.13;6156854;23;20274;-78
2022/05/09 03:22:03;;;;;;;;;;;;;;;17.44;49.18;102830.72;6130833;23;19924;-78
2022/05/09 03:24:28;;;;;;;;;;;;;;;17.44;49.00;102822.03;6130957;23;19987;-78
2022/05/09 03:26:53;;;;;;;;;;;;;;;17.46;49.11;102813.44;6131047;23;19936;-78
2022/05/09 03:29:19;;;;;;;;;;;;;;;17.47;49.27;102816.91;6132641;23;19987;-78
2022/05/09 03:31:48;;;;;;;;;;;;;;;17.46;49.13;102815.13;6158898;23;19908;-78
2022/05/09 03:34:14;;;;;;;;;;;;;;;17.46;49.00;102818.63;6132615;23;19989;-79
2022/05/09 03:36:40;;;;;;;;;;;;;;;17.45;48.97;102813.38;6158550;23;20352;-79
2022/05/09 03:39:05;;;;;;;;;;;;;;;17.43;49.11;102815.06;6161815;23;19917;-79
2022/05/09 03:41:30;;;;;;;;;;;;;;;17.43;49.07;102807.25;6135939;23;19916;-78
2022/05/09 03:43:56;;;;;;;;;;;;;;;17.45;48.96;102808.19;6132985;23;19913;-79
2022/05/09 03:46:21;;;;;;;;;;;;;;;17.45;49.01;102810.78;6158700;23;19915;-78
2022/05/09 03:48:46;;;;;;;;;;;;;;;17.42;48.93;102810.69;6132490;23;19913;-78
2022/05/09 03:51:11;;;;;;;;;;;;;;;17.44;49.00;102809.00;6132241;23;19995;-78
2022/05/09 03:53:37;;;;;;;;;;;;;;;17.42;48.90;102803.78;6158709;23;19912;-78
2022/05/09 03:56:03;;;;;;;;;;;;;;;17.44;48.87;102807.31;6132533;23;19913;-78
2022/05/09 03:58:28;;;;;;;;;;;;;;;17.43;48.86;102804.66;6158811;23;19917;-78
2022/05/09 04:00:56;;;;;;;;;;;;;;;17.42;48.65;102802.88;6157964;23;20156;-79
2022/05/09 04:03:21;;;;;;;;;;;;;;;17.41;48.97;102804.63;6132062;23;19921;-78
2022/05/09 04:05:46;;;;;;;;;;;;;;;17.43;48.77;102804.66;6132160;23;19917;-78
2022/05/09 04:08:16;;;;;;;;;;;;;;;17.45;48.98;102800.38;6107721;23;19913;-78
2022/05/09 04:10:41;;;;;;;;;;;;;;;17.45;48.79;102796.03;6158556;23;19912;-78
2022/05/09 04:13:07;;;;;;;;;;;;;;;17.46;48.92;102792.59;6107663;23;20241;-78
2022/05/09 04:18:17;;;;;;;;;;;;;;;17.47;48.84;102788.28;6158535;23;19920;-78
2022/05/09 04:20:43;;;;;;;;;;;;;;;17.50;48.87;102784.84;6107814;23;19964;-78
2022/05/09 04:23:09;;;;;;;;;;;;;;;17.51;48.73;102779.69;6131828;23;20330;-78
2022/05/09 04:25:35;;;;;;;;;;;;;;;17.53;48.56;102782.31;6107847;23;19919;-79
2022/05/09 04:28:02;;;;;;;;;;;;;;;17.53;48.61;102784.91;6132001;23;19909;-80
2022/05/09 04:30:28;;;;;;;;;;;;;;;17.52;48.57;102780.56;6132754;23;19909;-82
2022/05/09 04:32:53;;;;;;;;;;;;;;;17.52;48.95;102780.56;6132088;23;19936;-83
2022/05/09 04:35:20;;;;;;;;;;;;;;;17.52;48.79;102778.81;6132246;23;19947;-81
2022/05/09 04:37:47;;;;;;;;;;;;;;;17.53;48.53;102784.91;6132119;23;19916;-82
2022/05/09 04:40:13;;;;;;;;;;;;;;;17.52;48.41;102781.44;6108635;23;20230;-81
2022/05/09 04:42:38;;;;;;;;;;;;;;;17.52;48.77;102780.56;6158265;23;19924;-81
2022/05/09 04:45:04;;;;;;;;;;;;;;;17.54;48.51;102773.66;6107321;23;19912;-82
2022/05/09 04:47:29;;;;;;;;;;;;;;;17.54;48.41;102773.66;6158127;23;19919;-82
2022/05/09 04:49:54;;;;;;;;;;;;;;;17.56;48.30;102778.03;6158243;23;19983;-82
2022/05/09 04:52:20;;;;;;;;;;;;;;;17.53;48.42;102761.47;6132426;23;19913;-81
2022/05/09 04:54:45;;;;;;;;;;;;;;;17.54;48.26;102771.06;6158252;23;20011;-84
2022/05/09 04:57:10;;;;;;;;;;;;;;;17.55;48.54;102767.59;6132318;23;19959;-79
2022/05/09 04:59:35;;;;;;;;;;;;;;;17.59;48.44;102766.81;6131880;23;19928;-78
2022/05/09 05:02:00;;;;;;;;;;;;;;;17.60;48.23;102768.59;6159973;23;19921;-80
2022/05/09 05:04:26;;;;;;;;;;;;;;;17.61;48.08;102771.19;6160723;23;19909;-80
2022/05/09 05:06:51;;;;;;;;;;;;;;;17.66;48.28;102771.34;6107839;23;19920;-83
2022/05/09 05:09:16;;;;;;;;;;;;;;;17.71;48.20;102771.41;6131986;23;20348;-80
2022/05/09 05:11:42;;;;;;;;;;;;;;;17.85;47.67;102770.84;6131936;23;19916;-78
2022/05/09 05:14:07;;;;;;;;;;;;;;;18.02;47.34;102768.59;6157857;23;19920;-77
2022/05/09 05:19:16;;;;;;;;;;;;;;;18.29;46.60;102776.06;6157602;23;19923;-79
2022/05/09 05:21:42;;;;;;;;;;;;;;;18.58;46.65;102765.28;6106770;23;19917;-77
2022/05/09 05:24:07;;;;;;;;;;;;;;;18.71;46.33;102759.41;6157521;23;19913;-77
2022/05/09 05:26:32;;;;;;;;;;;;;;;18.83;46.08;102755.25;6131514;23;19971;-77
2022/05/09 05:28:58;;;;;;;;;;;;;;;18.88;45.88;102748.41;6106726;23;19967;-78
2022/05/09 05:31:23;;;;;;;;;;;;;;;18.93;45.71;102746.72;6157577;23;19983;-78
2022/05/09 05:33:48;;;;;;;;;;;;;;;18.99;45.60;102749.44;6159682;23;19912;-78
2022/05/09 05:36:15;;;;;;;;;;;;;;;19.09;45.29;102750.44;6133432;23;19968;-80
2022/05/09 05:38:41;;;;;;;;;;;;;;;19.18;45.09;102749.69;6159197;23;19912;-77
2022/05/09 05:41:09;;;;;;;;;;;;;;;19.27;45.00;102752.44;6134028;23;19956;-80
2022/05/09 05:43:35;;;;;;;;;;;;;;;19.38;44.63;102752.56;6132481;23;19916;-78
2022/05/09 05:46:00;;;;;;;;;;;;;;;19.45;44.42;102763.13;6131287;23;20413;-78
2022/05/09 05:48:25;;;;;;;;;;;;;;;19.53;44.26;102758.91;6157296;23;19917;-79
2022/05/09 05:50:52;;;;;;;;;;;;;;;19.60;44.30;102769.38;6131328;23;19912;-76
2022/05/09 05:53:18;;;;;;;;;;;;;;;19.66;44.29;102770.38;6131324;23;19912;-78
2022/05/09 05:55:43;;;;;;;;;;;;;;;19.72;43.96;102773.06;6130990;23;19916;-77
2022/05/09 05:58:09;;;;;;;;;;;;;;;19.77;43.95;102765.28;6131352;23;19912;-81
2022/05/09 06:00:34;;;;;;;;;;;;;;;19.83;44.06;102773.19;6131420;23;19909;-79
2022/05/09 06:03:00;;;;;;;;;;;;;;;19.88;44.14;102776.78;6131145;23;19919;-77
2022/05/09 06:05:25;;;;;;;;;;;;;;;19.91;44.63;102771.56;6131126;23;19998;-77
2022/05/09 06:07:55;;;;;;;;;;;;;;;19.94;44.24;102774.19;6130939;23;19916;-78
2022/05/09 06:10:20;;;;;;;;;;;;;;;19.99;44.48;102773.38;6131435;23;19936;-77
2022/05/09 06:12:46;;;;;;;;;;;;;;;20.02;44.36;102773.44;6131275;23;19917;-77
2022/05/09 06:18:13;;;;;;;;;;;;;;;20.14;44.39;102774.44;6068429;23;19909;-77
2022/05/09 06:20:39;;;;;;;;;;;;;;;20.19;44.25;102769.25;6112673;23;19913;-76
2022/05/09 06:23:05;;;;;;;;;;;;;;;20.19;44.14;102766.66;6130886;23;19913;-77
2022/05/09 06:25:31;;;;;;;;;;;;;;;20.23;44.11;102775.38;6157119;23;20015;-77
2022/05/09 06:27:58;;;;;;;;;;;;;;;20.24;44.09;102779.75;6131002;23;19912;-76
2022/05/09 06:30:24;;;;;;;;;;;;;;;20.26;44.27;102780.66;6130931;23;20007;-75
2022/05/09 06:32:50;;;;;;;;;;;;;;;20.26;44.23;102781.53;6131157;23;19917;-77
2022/05/09 06:35:20;;;;;;;;;;;;;;;20.29;43.98;102780.66;6131036;23;20214;-77
2022/05/09 06:37:46;;;;;;;;;;;;;;;20.28;44.30;102778.94;6156872;23;20329;-77
2022/05/09 06:40:11;;;;;;;;;;;;;;;20.29;44.22;102778.91;6130900;23;19989;-77
2022/05/09 06:42:37;;;;;;;;;;;;;;;20.30;44.37;102782.44;6130824;23;19952;-78
2022/05/09 06:45:02;;;;;;;;;;;;;;;20.28;44.27;102774.56;6130597;23;19960;-77
2022/05/09 06:47:28;;;;;;;;;;;;;;;20.29;44.27;102780.66;6156833;23;19912;-78
2022/05/09 06:49:53;;;;;;;;;;;;;;;20.28;44.23;102778.94;6130657;23;20380;-78
2022/05/09 06:52:18;;;;;;;;;;;;;;;20.28;44.25;102773.69;6130614;23;20000;-78
2022/05/09 06:54:44;;;;;;;;;;;;;;;20.26;44.58;102768.44;6156882;23;19913;-77
2022/05/09 06:57:09;;;;;;;;;;;;;;;20.25;44.33;102771.94;6130899;23;19920;-77
2022/05/09 06:59:34;;;;;;;;;;;;;;;20.22;44.54;102773.63;6156408;23;20333;-78
2022/05/09 07:02:00;;;;;;;;;;;;;;;20.22;44.62;102781.47;6156568;23;19920;-77
2022/05/09 07:04:25;;;;;;;;;;;;;;;20.19;44.77;102777.09;6158821;23;19947;-77
2022/05/09 07:06:51;;;;;;;;;;;;;;;20.20;44.54;102775.34;6132794;23;19988;-79
2022/05/09 07:09:16;;;;;;;;;;;;;;;20.21;44.77;102779.69;6132871;23;20325;-77
2022/05/09 07:11:42;;;;;;;;;;;;;;;20.19;44.64;102774.47;6158977;23;19944;-77
2022/05/09 07:14:07;;;;;;;;;;;;;;;20.20;44.71;102765.78;6159377;23;20973;-78
2022/05/09 07:16:33;;;;;;;;;;;;;;;20.20;44.48;102764.91;6158876;23;19979;-77
2022/05/09 07:18:59;;;;;;;;;;;;;;;20.21;44.24;102769.25;6132516;23;19931;-79
2022/05/09 07:21:24;;;;;;;;;;;;;;;20.21;44.46;102769.25;6158749;23;20237;-77
2022/05/09 07:23:50;;;;;;;;;;;;;;;20.22;44.56;102777.13;6158411;23;19920;-79
2022/05/09 07:26:15;;;;;;;;;;;;;;;20.23;44.55;102770.13;6160262;23;19913;-79
2022/05/09 07:28:42;;;;;;;;;;;;;;;20.22;44.30;102769.28;6132519;23;19916;-80
2022/05/09 07:31:08;;;;;;;;;;;;;;;20.21;44.75;102762.31;6158453;23;19912;-80
2022/05/09 07:33:33;;;;;;;;;;;;;;;20.23;44.38;102768.44;6108048;23;19939;-79
2022/05/09 07:35:58;;;;;;;;;;;;;;;20.26;44.52;102773.69;6132288;23;19963;-79
2022/05/09 07:38:24;;;;;;;;;;;;;;;20.27;44.53;102764.09;6132387;23;20308;-79
2022/05/09 07:40:49;;;;;;;;;;;;;;;20.28;44.15;102758.88;6158497;23;19919;-79
2022/05/09 07:43:17;;;;;;;;;;;;;;;20.30;44.41;102757.16;6132329;23;19940;-80
2022/05/09 07:45:43;;;;;;;;;;;;;;;20.27;44.43;102759.75;6132400;23;19916;-80
2022/05/09 07:48:09;;;;;;;;;;;;;;;20.28;44.68;102756.28;6132844;23;19960;-81
2022/05/09 07:50:34;;;;;;;;;;;;;;;20.30;44.63;102761.53;6158577;23;19908;-79
2022/05/09 07:53:03;;;;;;;;;;;;;;;20.30;44.35;102757.16;6158722;23;19920;-79
2022/05/09 07:55:29;;;;;;;;;;;;;;;20.28;44.71;102751.03;6158279;23;19909;-79
2022/05/09 07:57:55;;;;;;;;;;;;;;;20.30;44.54;102758.91;6107764;23;20250;-79
2022/05/09 08:00:20;;;;;;;;;;;;;;;20.28;44.60;102756.28;6157748;23;20296;-79
2022/05/09 08:02:45;;;;;;;;;;;;;;;20.32;44.65;102754.56;6131878;23;19920;-79
2022/05/09 08:05:11;;;;;;;;;;;;;;;20.29;44.64;102758.00;6132179;23;19951;-79
2022/05/09 08:07:39;;;;;;;;;;;;;;;20.30;44.47;102759.78;6158291;23;19917;-79
2022/05/09 08:10:05;;;;;;;;;;;;;;;20.31;44.42;102751.06;6158107;23;19917;-79
2022/05/09 08:12:30;;;;;;;;;;;;;;;20.32;44.53;102750.22;6158324;23;19912;-80
2022/05/09 08:14:55;;;;;;;;;;;;;;;20.31;44.67;102743.22;6157484;23;20015;-79
2022/05/09 08:17:21;;;;;;;;;;;;;;;20.28;44.44;102752.78;6132066;23;20321;-79
2022/05/09 08:19:47;;;;;;;;;;;;;;;20.27;44.51;102757.16;6158149;23;20305;-79
2022/05/09 08:22:13;;;;;;;;;;;;;;;20.29;44.45;102751.91;6107578;23;19928;-79
2022/05/09 08:24:38;;;;;;;;;;;;;;;20.31;44.31;102748.44;6157950;23;19959;-79
2022/05/09 08:27:03;;;;;;;;;;;;;;;20.31;44.41;102758.91;6157971;23;19917;-79
2022/05/09 08:29:29;;;;;;;;;;;;;;;20.30;44.28;102745.84;6107642;23;19943;-79
2022/05/09 08:31:54;;;;;;;;;;;;;;;20.32;44.01;102744.13;6131992;23;19995;-79
2022/05/09 08:34:19;;;;;;;;;;;;;;;20.27;44.34;102751.91;6132138;23;19912;-79
2022/05/09 08:36:53;;;;;;;;;;;;;;;20.27;44.30;102748.41;6107247;23;19920;-79
2022/05/09 08:39:19;;;;;;;;;;;;;;;20.24;44.21;102744.03;6109122;23;19921;-79
2022/05/09 08:41:55;;;;;;;;;;;;;;;20.25;44.07;102737.06;6157909;23;19988;-79
2022/05/09 08:44:39;;;;;;;;;;;;;;;20.28;43.98;102743.19;6158111;23;19908;-79
2022/05/09 08:47:05;;;;;;;;;;;;;;;20.30;44.03;102743.22;6131490;23;19963;-79
2022/05/09 08:49:47;;;;;;;;;;;;;;;20.31;43.83;102743.22;6131482;23;19909;-79
2022/05/09 08:52:30;;;;;;;;;;;;;;;20.30;43.67;102731.00;6157325;23;19991;-77
2022/05/09 08:54:55;;;;;;;;;;;;;;;20.30;43.61;102740.59;6157891;23;20345;-77
2022/05/09 08:57:25;;;;;;;;;;;;;;;20.28;43.85;102729.25;6131657;23;19909;-78
2022/05/09 09:00:17;;;;;;;;;;;;;;;20.28;43.66;102735.34;6157896;23;19923;-78
2022/05/09 09:02:51;;;;;;;;;;;;;;;20.27;43.74;102725.78;6128489;23;19912;-78
2022/05/09 09:05:21;;;;;;;;;;;;;;;20.26;43.63;102720.53;6131587;23;20330;-78
2022/05/09 09:08:00;;;;;;;;;;;;;;;20.26;43.71;102723.13;6157496;23;19920;-78
2022/05/09 09:10:30;;;;;;;;;;;;;;;20.25;43.68;102718.75;6157536;23;19956;-78
2022/05/09 09:12:57;;;;;;;;;;;;;;;20.23;43.79;102712.63;6157585;23;19983;-79
2022/05/09 09:15:46;;;;;;;;;;;;;;;20.23;43.87;102710.91;6157820;23;19916;-78
2022/05/09 09:18:30;;;;;;;;;;;;;;;20.22;43.78;102701.31;6131369;23;19928;-78
2022/05/09 09:21:00;;;;;;;;;;;;;;;20.22;43.81;102705.66;6157845;23;19972;-78
2022/05/09 09:23:38;;;;;;;;;;;;;;;20.21;43.80;102702.19;6131257;23;19940;-78
2022/05/09 09:26:28;;;;;;;;;;;;;;;20.19;43.60;102700.41;6157404;23;19989;-78
2022/05/09 09:28:57;;;;;;;;;;;;;;;20.19;43.95;102695.19;6124206;23;19988;-78
2022/05/09 09:31:28;;;;;;;;;;;;;;;20.16;43.71;102685.56;6131082;23;19975;-78
2022/05/09 09:34:16;;;;;;;;;;;;;;;20.16;43.92;102696.00;6157275;23;19908;-78
2022/05/09 09:36:50;;;;;;;;;;;;;;;20.15;44.17;102691.66;6148790;23;19917;-78
2022/05/09 09:39:18;;;;;;;;;;;;;;;20.13;44.03;102689.03;6131206;23;20000;-78
2022/05/09 09:41:44;;;;;;;;;;;;;;;20.12;44.03;102694.22;6157010;23;20381;-79
2022/05/09 09:44:15;;;;;;;;;;;;;;;20.12;44.15;102694.22;6131509;23;19912;-79
2022/05/09 09:46:59;;;;;;;;;;;;;;;20.10;44.24;102688.16;6158742;23;19940;-79
2022/05/09 09:49:24;;;;;;;;;;;;;;;20.09;44.27;102675.91;6131115;23;19951;-78
2022/05/09 09:51:50;;;;;;;;;;;;;;;20.10;44.01;102677.69;6106525;23;19913;-79
2022/05/09 09:54:24;;;;;;;;;;;;;;;20.08;44.21;102677.66;6130985;23;20341;-79
2022/05/09 09:56:49;;;;;;;;;;;;;;;20.08;44.39;102671.56;6131088;23;20241;-79
2022/05/09 09:59:18;;;;;;;;;;;;;;;20.07;44.34;102673.28;6106415;23;19920;-77
2022/05/09 10:01:59;;;;;;;;;;;;;;;20.05;44.18;102675.00;6157233;23;19973;-78
2022/05/09 10:04:25;;;;;;;;;;;;;;;20.06;44.24;102679.38;6157126;23;19909;-79
2022/05/09 10:07:07;;;;;;;;;;;;;;;20.04;44.25;102675.88;6130889;23;19916;-79
2022/05/09 10:09:37;;;;;;;;;;;;;;;20.04;44.35;102669.78;6157125;23;20236;-79
2022/05/09 10:12:15;;;;;;;;;;;;;;;20.04;44.31;102667.19;6158276;23;19935;-79
2022/05/09 10:14:40;;;;;;;;;;;;;;;20.03;44.10;102670.63;6131205;23;19909;-80
2022/05/09 10:17:18;;;;;;;;;;;;;;;20.02;44.21;102672.38;6106563;23;19991;-80
2022/05/09 10:19:43;;;;;;;;;;;;;;;20.04;44.08;102667.19;6131052;23;19915;-79
2022/05/09 10:24:57;;;;;;;;;;;;;;;20.01;44.10;102659.28;6157007;23;20335;-78
2022/05/09 10:27:22;;;;;;;;;;;;;;;20.01;44.21;102660.19;6131205;23;19988;-78
2022/05/09 10:29:50;;;;;;;;;;;;;;;20.00;44.08;102653.19;6157022;23;19951;-78
2022/05/09 10:32:18;;;;;;;;;;;;;;;20.01;44.29;102654.06;6157115;23;19947;-78
2022/05/09 10:35:04;;;;;;;;;;;;;;;20.00;43.86;102654.94;6157239;23;19913;-79
2022/05/09 10:37:42;;;;;;;;;;;;;;;20.00;44.21;102655.81;6146224;23;19917;-78
2022/05/09 10:40:13;;;;;;;;;;;;;;;20.01;43.42;102651.44;6157057;23;19966;-78
2022/05/09 10:42:46;;;;;;;;;;;;;;;20.00;43.84;102653.19;6130590;23;19912;-78
2022/05/09 10:45:20;;;;;;;;;;;;;;;20.00;44.01;102639.25;6157211;23;19908;-78
2022/05/09 10:47:56;;;;;;;;;;;;;;;19.99;43.83;102633.16;6156839;23;19913;-80
2022/05/09 10:50:41;;;;;;;;;;;;;;;20.00;43.66;102636.66;6130693;23;19913;-80
2022/05/09 10:53:11;;;;;;;;;;;;;;;20.00;43.57;102631.41;6131365;23;19919;-79
2022/05/09 10:55:43;;;;;;;;;;;;;;;20.01;43.06;102630.53;6156806;23;19912;-81
2022/05/09 10:58:26;;;;;;;;;;;;;;;20.04;43.20;102630.59;6130396;23;20245;-78
2022/05/09 11:00:55;;;;;;;;;;;;;;;20.02;42.39;102627.94;6156591;23;20285;-80
2022/05/09 11:03:26;;;;;;;;;;;;;;;20.02;42.82;102632.31;6156703;23;20281;-80
2022/05/09 11:05:59;;;;;;;;;;;;;;;20.01;43.11;102625.31;6130373;23;19956;-79
2022/05/09 11:08:29;;;;;;;;;;;;;;;20.02;43.12;102627.94;6156514;23;19959;-79
2022/05/09 11:11:05;;;;;;;;;;;;;;;20.02;42.75;102622.72;6131160;23;19916;-79
2022/05/09 11:13:43;;;;;;;;;;;;;;;20.02;42.61;102614.88;6130857;23;19943;-79
2022/05/09 11:16:14;;;;;;;;;;;;;;;20.03;42.63;102613.13;6130407;23;19909;-79
2022/05/09 11:18:39;;;;;;;;;;;;;;;20.04;42.66;102625.34;6130668;23;20232;-79
2022/05/09 11:21:23;;;;;;;;;;;;;;;20.04;42.25;102618.38;6130701;23;19943;-79
2022/05/09 11:23:48;;;;;;;;;;;;;;;20.06;42.41;102615.78;6130435;23;20331;-79
2022/05/09 11:26:22;;;;;;;;;;;;;;;20.06;42.66;102615.78;6130522;23;19935;-78
2022/05/09 11:28:50;;;;;;;;;;;;;;;20.06;42.10;102623.63;6156600;23;19936;-79
2022/05/09 11:31:15;;;;;;;;;;;;;;;20.07;42.73;102612.31;6156808;23;19913;-79
2022/05/09 11:33:58;;;;;;;;;;;;;;;20.07;42.40;102602.72;6156772;23;20238;-78
2022/05/09 11:36:24;;;;;;;;;;;;;;;20.08;41.32;102598.41;6156489;23;20438;-78
2022/05/09 11:39:01;;;;;;;;;;;;;;;20.07;41.50;102594.88;6156603;23;20334;-79
2022/05/09 11:41:35;;;;;;;;;;;;;;;20.06;41.17;102589.66;6155491;23;19913;-79
2022/05/09 11:44:09;;;;;;;;;;;;;;;20.07;41.29;102580.94;6156580;23;19919;-78
2022/05/09 11:46:53;;;;;;;;;;;;;;;20.08;41.04;102586.19;6156250;23;19909;-78
2022/05/09 11:49:18;;;;;;;;;;;;;;;20.09;41.21;102579.22;6131189;23;19931;-79
2022/05/09 11:51:43;;;;;;;;;;;;;;;20.09;41.31;102577.47;6158296;23;20330;-78
2022/05/09 11:54:27;;;;;;;;;;;;;;;20.09;41.00;102572.25;6158998;23;19909;-79
2022/05/09 11:56:59;;;;;;;;;;;;;;;20.09;40.90;102574.00;6158138;23;19909;-78
2022/05/09 11:59:25;;;;;;;;;;;;;;;20.11;41.20;102572.28;6158013;23;19938;-79
2022/05/09 12:02:00;;;;;;;;;;;;;;;20.10;41.18;102557.47;6158025;23;20210;-78
2022/05/09 12:04:44;;;;;;;;;;;;;;;20.10;41.18;102554.84;6158290;23;19984;-78
2022/05/09 12:07:19;;;;;;;;;;;;;;;20.11;41.18;102556.59;6131968;23;19917;-78
2022/05/09 12:10:03;;;;;;;;;;;;;;;20.13;41.36;102558.34;6131876;23;19909;-79
2022/05/09 12:12:37;;;;;;;;;;;;;;;20.14;41.17;102546.13;6158173;23;19908;-79
2022/05/09 12:15:04;;;;;;;;;;;;;;;20.13;41.17;102544.41;6158125;23;19915;-79
2022/05/09 12:17:34;;;;;;;;;;;;;;;20.13;41.44;102544.41;6107624;23;19912;-78
2022/05/09 12:20:00;;;;;;;;;;;;;;;20.14;41.27;102540.91;6158171;23;20385;-78
2022/05/09 12:22:37;;;;;;;;;;;;;;;20.16;41.30;102539.19;6131854;23;19995;-78
2022/05/09 12:25:22;;;;;;;;;;;;;;;20.16;41.25;102535.69;6131881;23;19908;-79
2022/05/09 12:28:07;;;;;;;;;;;;;;;20.15;41.26;102527.00;6129408;23;19909;-78
2022/05/09 12:30:41;;;;;;;;;;;;;;;20.17;41.31;102519.19;6121403;23;19924;-78
2022/05/09 12:33:12;;;;;;;;;;;;;;;20.18;41.53;102524.38;6157791;23;19909;-78
2022/05/09 12:35:38;;;;;;;;;;;;;;;20.21;41.22;102515.69;6132596;23;20214;-79
2022/05/09 12:38:03;;;;;;;;;;;;;;;20.21;41.20;102515.69;6131663;23;20000;-78
2022/05/09 12:40:29;;;;;;;;;;;;;;;20.21;41.44;102508.75;6131552;23;19966;-78
2022/05/09 12:42:59;;;;;;;;;;;;;;;20.22;41.50;102518.31;6157551;23;20006;-79
2022/05/09 12:45:26;;;;;;;;;;;;;;;20.24;41.43;102513.97;6157850;23;19909;-78
2022/05/09 12:47:51;;;;;;;;;;;;;;;20.26;41.56;102519.22;6131974;23;19920;-78
2022/05/09 12:50:34;;;;;;;;;;;;;;;20.26;41.64;102517.47;6157783;23;19940;-78
2022/05/09 12:53:04;;;;;;;;;;;;;;;20.27;41.50;102516.63;6131525;23;20302;-78
2022/05/09 12:55:55;;;;;;;;;;;;;;;20.28;41.48;102510.53;6131347;23;20342;-79